Terminal Aerodrome Forecast
Issued by NWS Cleveland, OH

Home | Current Version | Previous Version | Graphics & Text | Print | Product List | Glossary On
Versions: 1 2 3 4 5 6 7 8 9 10 11 12 13 14 15 16 17 18 19 20 21 22 23 24 25 26 27 28 29
004
FTUS41 KCLE 020904 AAA
TAFCLE
TAF AMD
KCLE 020904Z 0209/0312 24012KT P6SM BKN025
      TEMPO 0209/0212 SCT025 BKN050
     FM021800 27014G22KT P6SM VCSH SCT025 OVC040=

USA.gov is the U.S. government's official web portal to all federal, state and local government web resources and services.